Time;durP1;ratioP1;P1;durP2;ratioP2;P2;SDS_P1;SDS_P2;PMS_P1;PMS_P2;Temp;Humidity;BMP_temperature;BMP_pressure;BME280_temperature;BME280_humidity;BME280_pressure;Samples;Min_cycle;Max_cycle;Signal;HPM_P1;HPM_P2
2022/02/04 00:23:19;;;;;;;0.50;0.50;;;;;;;;;;4996709;28;20313;-63
2022/02/04 00:31:00;;;;;;;0.50;0.50;;;;;;;;;;5033440;28;20192;-62
2022/02/04 00:33:28;;;;;;;0.50;0.50;;;;;;;;;;5033431;28;20180;-62
2022/02/04 00:36:01;;;;;;;0.50;0.50;;;;;;;;;;5033256;28;20241;-63
2022/02/04 00:38:31;;;;;;;0.60;0.60;;;;;;;;;;5033300;28;20543;-62
2022/02/04 00:41:06;;;;;;;0.60;0.60;;;;;;;;;;5032999;28;20210;-62
2022/02/04 00:43:32;;;;;;;0.50;0.50;;;;;;;;;;5033228;28;20641;-63
2022/02/04 00:48:46;;;;;;;0.50;0.50;;;;;;;;;;5032996;28;20269;-63
2022/02/04 01:26:11;;;;;;;0.50;0.50;;;;;;;;;;5032608;28;20218;-63
2022/02/04 01:28:39;;;;;;;0.50;0.50;;;;;;;;;;5032189;28;20543;-63
2022/02/04 01:31:05;;;;;;;0.50;0.50;;;;;;;;;;5032149;28;20180;-63
2022/02/04 01:33:32;;;;;;;0.50;0.50;;;;;;;;;;5032334;28;20209;-63
2022/02/04 01:35:58;;;;;;;0.60;0.60;;;;;;;;;;5032177;28;20260;-63
2022/02/04 01:38:25;;;;;;;0.60;0.60;;;;;;;;;;5031949;28;20259;-63
2022/02/04 01:40:51;;;;;;;0.50;0.50;;;;;;;;;;5031847;28;20298;-62
2022/02/04 01:43:21;;;;;;;0.50;0.50;;;;;;;;;;5032182;28;20177;-63
2022/02/04 01:45:48;;;;;;;0.50;0.50;;;;;;;;;;5014304;28;20679;-63
2022/02/04 01:48:14;;;;;;;0.55;0.55;;;;;;;;;;5031987;28;20184;-62
2022/02/04 01:50:40;;;;;;;0.40;0.40;;;;;;;;;;5031732;28;20196;-62
2022/02/04 01:53:06;;;;;;;0.50;0.50;;;;;;;;;;5031917;28;20415;-62
2022/02/04 01:55:32;;;;;;;0.50;0.50;;;;;;;;;;5031907;28;20422;-63
2022/02/04 01:57:58;;;;;;;0.50;0.50;;;;;;;;;;5031919;28;20418;-63
2022/02/04 02:00:24;;;;;;;0.50;0.50;;;;;;;;;;5031494;28;20212;-62
2022/02/04 02:02:51;;;;;;;0.50;0.50;;;;;;;;;;5031820;28;20505;-63
2022/02/04 02:05:16;;;;;;;0.40;0.40;;;;;;;;;;5031776;28;20609;-63
2022/02/04 02:07:47;;;;;;;0.50;0.50;;;;;;;;;;5031709;28;20173;-63
2022/02/04 02:10:19;;;;;;;0.50;0.50;;;;;;;;;;5031629;28;20434;-63
2022/02/04 02:12:58;;;;;;;0.60;0.60;;;;;;;;;;5031791;28;20528;-63
2022/02/04 02:15:35;;;;;;;0.60;0.60;;;;;;;;;;5031789;28;20683;-63
2022/02/04 02:38:35;;;;;;;0.50;0.50;;;;;;;;;;5038143;28;20690;-62
2022/02/04 02:48:35;;;;;;;0.50;0.50;;;;;;;;;;5037766;28;20686;-62
2022/02/04 02:59:28;;;;;;;0.50;0.50;;;;;;;;;;5037838;28;20207;-63
2022/02/04 03:01:54;;;;;;;0.50;0.50;;;;;;;;;;5037674;28;20585;-62
2022/02/04 03:04:20;;;;;;;0.50;0.50;;;;;;;;;;5037661;28;20176;-63
2022/02/04 03:06:47;;;;;;;0.50;0.50;;;;;;;;;;5037849;28;20176;-62
2022/02/04 03:09:14;;;;;;;0.40;0.40;;;;;;;;;;5037725;28;20505;-62
2022/02/04 03:11:40;;;;;;;0.50;0.50;;;;;;;;;;5037583;28;20180;-63
2022/02/04 03:14:06;;;;;;;0.50;0.50;;;;;;;;;;5037791;28;20176;-63
2022/02/04 03:16:33;;;;;;;0.50;0.50;;;;;;;;;;5037549;28;20435;-62
2022/02/04 03:19:01;;;;;;;0.40;0.40;;;;;;;;;;5037561;28;20199;-63
2022/02/04 03:21:35;;;;;;;0.50;0.50;;;;;;;;;;5037482;28;20178;-63
2022/02/04 03:24:07;;;;;;;0.50;0.50;;;;;;;;;;5037693;28;20262;-63
2022/02/04 03:29:03;;;;;;;0.60;0.60;;;;;;;;;;5047679;22;20235;-62
2022/02/04 03:31:33;;;;;;;0.50;0.50;;;;;;;;;;5096473;28;20194;-61
2022/02/04 03:33:59;;;;;;;0.50;0.50;;;;;;;;;;5101092;28;20158;-59
2022/02/04 03:36:25;;;;;;;0.50;0.50;;;;;;;;;;5094155;28;20200;-61
2022/02/04 03:38:51;;;;;;;0.50;0.50;;;;;;;;;;5094602;28;20174;-62
2022/02/04 03:41:17;;;;;;;0.50;0.50;;;;;;;;;;5094241;28;20560;-63
2022/02/04 03:43:43;;;;;;;0.50;0.50;;;;;;;;;;5094386;28;20412;-63
2022/02/04 03:46:09;;;;;;;0.60;0.60;;;;;;;;;;5094402;28;20590;-62
2022/02/04 03:48:35;;;;;;;0.50;0.50;;;;;;;;;;5094428;28;20993;-63
2022/02/04 03:51:01;;;;;;;0.50;0.50;;;;;;;;;;5094127;28;20518;-62
2022/02/04 03:53:27;;;;;;;0.55;0.55;;;;;;;;;;5094312;28;20234;-63
2022/02/04 03:55:53;;;;;;;0.50;0.50;;;;;;;;;;5094329;28;20232;-63
2022/02/04 03:58:19;;;;;;;0.50;0.50;;;;;;;;;;5094163;28;20409;-63
2022/02/04 04:00:45;;;;;;;0.50;0.50;;;;;;;;;;5075576;28;20508;-63
2022/02/04 04:03:11;;;;;;;0.55;0.55;;;;;;;;;;5094150;28;20407;-63
2022/02/04 04:05:45;;;;;;;0.50;0.50;;;;;;;;;;5094112;28;20676;-63
2022/02/04 04:08:13;;;;;;;0.40;0.40;;;;;;;;;;5094102;28;20399;-63
2022/02/04 04:10:41;;;;;;;0.50;0.50;;;;;;;;;;5093658;28;20189;-63
2022/02/04 04:13:07;;;;;;;0.52;0.52;;;;;;;;;;5094083;28;20176;-63
2022/02/04 04:15:33;;;;;;;0.50;0.50;;;;;;;;;;5093947;28;20180;-63
2022/02/04 04:17:59;;;;;;;0.50;0.50;;;;;;;;;;5093890;28;20166;-63
2022/02/04 04:20:25;;;;;;;0.50;0.50;;;;;;;;;;5093489;28;20486;-63
2022/02/04 04:22:52;;;;;;;0.50;0.50;;;;;;;;;;5093821;28;20407;-63
2022/02/04 04:25:18;;;;;;;0.40;0.40;;;;;;;;;;5093672;28;20222;-63
2022/02/04 04:27:45;;;;;;;0.60;0.60;;;;;;;;;;5093688;28;20178;-63
2022/02/04 04:30:12;;;;;;;0.50;0.50;;;;;;;;;;5093237;28;20213;-62
2022/02/04 04:32:38;;;;;;;0.50;0.50;;;;;;;;;;5093555;28;20177;-63
2022/02/04 04:35:05;;;;;;;0.50;0.50;;;;;;;;;;5093631;28;20540;-63
2022/02/04 04:37:31;;;;;;;0.55;0.55;;;;;;;;;;5093493;28;20177;-63
2022/02/04 04:43:08;;;;;;;0.50;0.50;;;;;;;;;;5093457;28;20661;-63
2022/02/04 04:45:57;;;;;;;0.50;0.50;;;;;;;;;;5088236;28;20678;-62
2022/02/04 05:27:31;;;;;;;0.50;0.50;;;;;;;;;;5092632;28;20294;-62
2022/02/04 05:29:34;;;;;;;0.50;0.50;;;;;;;;;;5092057;28;20247;-62
2022/02/04 05:32:00;;;;;;;0.50;0.50;;;;;;;;;;5092017;28;20173;-62
2022/02/04 05:34:26;;;;;;;0.50;0.50;;;;;;;;;;5092499;28;20442;-62
2022/02/04 05:37:05;;;;;;;0.50;0.50;;;;;;;;;;5092377;28;20417;-62
2022/02/04 05:39:39;;;;;;;0.45;0.45;;;;;;;;;;5092246;28;20508;-62
2022/02/04 05:42:07;;;;;;;0.50;0.50;;;;;;;;;;5092128;28;20175;-62
2022/02/04 05:44:38;;;;;;;0.50;0.50;;;;;;;;;;5092124;28;20643;-62
2022/02/04 05:47:13;;;;;;;0.40;0.40;;;;;;;;;;5092561;28;20178;-62
2022/02/04 05:49:44;;;;;;;0.50;0.50;;;;;;;;;;5092250;28;20204;-62
2022/02/04 05:52:18;;;;;;;0.40;0.40;;;;;;;;;;5091882;28;20170;-62
2022/02/04 05:55:17;;;;;;;0.50;0.50;;;;;;;;;;5092257;28;20169;-62
2022/02/04 06:03:41;;;;;;;0.40;0.40;;;;;;;;;;5091992;28;20518;-62
2022/02/04 06:05:54;;;;;;;0.50;0.50;;;;;;;;;;5074145;28;20679;-62
2022/02/04 06:13:52;;;;;;;0.50;0.50;;;;;;;;;;5091835;28;20709;-62
2022/02/04 06:24:30;;;;;;;0.50;0.50;;;;;;;;;;5071801;28;20200;-62
2022/02/04 06:26:55;;;;;;;0.50;0.50;;;;;;;;;;5071618;28;20176;-62
2022/02/04 06:29:22;;;;;;;0.50;0.50;;;;;;;;;;5071366;28;20439;-62
2022/02/04 06:31:48;;;;;;;0.50;0.50;;;;;;;;;;5071318;28;20545;-62
2022/02/04 06:34:14;;;;;;;0.40;0.40;;;;;;;;;;5071622;28;20189;-62
2022/02/04 06:36:40;;;;;;;0.50;0.50;;;;;;;;;;5071447;28;20175;-62
2022/02/04 06:39:06;;;;;;;0.50;0.50;;;;;;;;;;5053188;28;20449;-62
2022/02/04 06:41:32;;;;;;;0.50;0.50;;;;;;;;;;5074653;28;20425;-61
2022/02/04 06:44:02;;;;;;;0.50;0.50;;;;;;;;;;5085733;28;20189;-62
2022/02/04 06:46:27;;;;;;;0.50;0.50;;;;;;;;;;5078244;28;20427;-62
2022/02/04 06:48:53;;;;;;;0.50;0.50;;;;;;;;;;5091501;28;20177;-62
2022/02/04 06:51:19;;;;;;;0.50;0.50;;;;;;;;;;5095156;28;20420;-61
2022/02/04 06:53:45;;;;;;;0.50;0.50;;;;;;;;;;5072081;28;20432;-62
2022/02/04 06:56:11;;;;;;;0.47;0.47;;;;;;;;;;5071025;28;20417;-62
2022/02/04 06:58:37;;;;;;;0.50;0.50;;;;;;;;;;5071730;28;20468;-62
2022/02/04 07:01:04;;;;;;;0.50;0.50;;;;;;;;;;5085910;28;20467;-61
2022/02/04 07:03:32;;;;;;;0.50;0.50;;;;;;;;;;5082900;28;20427;-61
2022/02/04 07:06:00;;;;;;;0.50;0.50;;;;;;;;;;5063992;28;20177;-60
2022/02/04 07:08:37;;;;;;;0.40;0.40;;;;;;;;;;5090466;28;20177;-62
2022/02/04 07:11:21;;;;;;;0.50;0.50;;;;;;;;;;5092391;28;20266;-62
2022/02/04 07:14:07;;;;;;;0.50;0.50;;;;;;;;;;5077556;28;20183;-62
2022/02/04 07:21:46;;;;;;;0.50;0.50;;;;;;;;;;5095047;28;20183;-62
2022/02/04 07:24:12;;;;;;;0.40;0.40;;;;;;;;;;5094900;28;20174;-62
2022/02/04 07:26:38;;;;;;;0.50;0.50;;;;;;;;;;5094629;28;20544;-63
2022/02/04 07:29:05;;;;;;;0.60;0.60;;;;;;;;;;5076446;28;20775;-62
2022/02/04 07:31:35;;;;;;;0.50;0.50;;;;;;;;;;5093592;28;20404;-62
2022/02/04 07:42:11;;;;;;;0.50;0.50;;;;;;;;;;5093364;28;20231;-62
2022/02/04 07:44:37;;;;;;;0.40;0.40;;;;;;;;;;5094176;28;20174;-62
2022/02/04 07:47:03;;;;;;;0.50;0.50;;;;;;;;;;5094039;28;20407;-62
2022/02/04 07:49:29;;;;;;;0.50;0.50;;;;;;;;;;5075382;28;20475;-62
2022/02/04 07:51:56;;;;;;;0.50;0.50;;;;;;;;;;5093419;28;20265;-62
2022/02/04 07:54:22;;;;;;;0.50;0.50;;;;;;;;;;5093657;28;20495;-62
2022/02/04 07:56:48;;;;;;;0.50;0.50;;;;;;;;;;5093801;28;20209;-63
2022/02/04 07:59:14;;;;;;;0.60;0.60;;;;;;;;;;5093852;28;20416;-62
2022/02/04 08:01:40;;;;;;;0.50;0.50;;;;;;;;;;5093409;28;20252;-63
2022/02/04 08:04:16;;;;;;;0.50;0.50;;;;;;;;;;5093155;28;20212;-62
2022/02/04 08:06:49;;;;;;;0.60;0.60;;;;;;;;;;5093929;28;20827;-62
2022/02/04 08:17:12;;;;;;;0.50;0.50;;;;;;;;;;5093517;28;20691;-62
2022/02/04 08:20:07;;;;;;;0.50;0.50;;;;;;;;;;5093369;28;20560;-62
2022/02/04 08:22:54;;;;;;;0.50;0.50;;;;;;;;;;5092464;28;20259;-62
2022/02/04 08:25:41;;;;;;;0.50;0.50;;;;;;;;;;5093097;28;20201;-62
2022/02/04 08:49:48;;;;;;;0.50;0.50;;;;;;;;;;5071898;28;20244;-62
2022/02/04 08:55:02;;;;;;;0.60;0.60;;;;;;;;;;5072660;28;20186;-62
2022/02/04 08:57:49;;;;;;;0.50;0.50;;;;;;;;;;5054642;28;20553;-62
2022/02/04 09:00:31;;;;;;;0.45;0.45;;;;;;;;;;5053488;28;20198;-62
2022/02/04 09:03:02;;;;;;;0.50;0.50;;;;;;;;;;5072429;28;20172;-62
2022/02/04 09:05:39;;;;;;;0.50;0.50;;;;;;;;;;5072517;28;20182;-62
2022/02/04 09:08:19;;;;;;;0.43;0.43;;;;;;;;;;5072201;28;20644;-62
2022/02/04 09:10:47;;;;;;;0.50;0.50;;;;;;;;;;5071548;28;20669;-62
2022/02/04 09:18:53;;;;;;;0.50;0.50;;;;;;;;;;5072256;28;20189;-61
2022/02/04 09:21:37;;;;;;;0.50;0.50;;;;;;;;;;5071445;28;20202;-63
2022/02/04 09:24:03;;;;;;;0.40;0.40;;;;;;;;;;5071938;28;20166;-63
2022/02/04 09:26:29;;;;;;;0.50;0.50;;;;;;;;;;5053600;28;20283;-64
2022/02/04 09:28:55;;;;;;;0.50;0.50;;;;;;;;;;5071599;28;20642;-64
2022/02/04 09:31:21;;;;;;;0.50;0.50;;;;;;;;;;5072644;28;20430;-63
2022/02/04 09:33:47;;;;;;;0.50;0.50;;;;;;;;;;5070395;28;20430;-63
2022/02/04 09:36:13;;;;;;;0.50;0.50;;;;;;;;;;5071893;28;20467;-63
2022/02/04 09:38:39;;;;;;;0.50;0.50;;;;;;;;;;5071567;28;20424;-62
2022/02/04 09:41:05;;;;;;;0.40;0.40;;;;;;;;;;5071502;28;20460;-61
2022/02/04 09:43:31;;;;;;;0.50;0.50;;;;;;;;;;5071499;28;20424;-63
2022/02/04 09:45:57;;;;;;;0.40;0.40;;;;;;;;;;5071357;28;20217;-63
2022/02/04 09:48:23;;;;;;;0.50;0.50;;;;;;;;;;5071615;28;20253;-63
2022/02/04 09:50:53;;;;;;;0.50;0.50;;;;;;;;;;5071123;28;20202;-62
2022/02/04 10:15:28;;;;;;;0.50;0.50;;;;;;;;;;5070981;28;20179;-60
2022/02/04 10:17:57;;;;;;;0.50;0.50;;;;;;;;;;5070961;28;20179;-60
2022/02/04 10:20:24;;;;;;;0.40;0.40;;;;;;;;;;5070777;28;20672;-62
2022/02/04 10:22:50;;;;;;;0.50;0.50;;;;;;;;;;5053521;28;20214;-62
2022/02/04 10:25:17;;;;;;;0.50;0.50;;;;;;;;;;5071131;28;20201;-61
2022/02/04 10:27:46;;;;;;;0.47;0.47;;;;;;;;;;5070708;28;20194;-62
2022/02/04 10:30:17;;;;;;;0.60;0.60;;;;;;;;;;5070817;28;20206;-62
2022/02/04 10:32:45;;;;;;;0.40;0.40;;;;;;;;;;5071492;28;20170;-62
2022/02/04 10:35:14;;;;;;;0.40;0.40;;;;;;;;;;5071541;28;20266;-62
2022/02/04 10:37:42;;;;;;;0.50;0.50;;;;;;;;;;5071013;28;20192;-62
2022/02/04 10:40:29;;;;;;;0.40;0.40;;;;;;;;;;5070828;28;20195;-62
2022/02/04 10:43:14;;;;;;;0.50;0.50;;;;;;;;;;5074223;28;20179;-62
2022/02/04 10:48:29;;;;;;;0.50;0.50;;;;;;;;;;5075413;28;20174;-63
2022/02/04 10:51:33;;;;;;;0.50;0.50;;;;;;;;;;5075066;28;20546;-63
2022/02/04 11:02:34;;;;;;;0.50;0.50;;;;;;;;;;5052863;28;20171;-62
2022/02/04 11:35:07;;;;;;;0.50;0.50;;;;;;;;;;5074141;28;20179;-62
2022/02/04 11:43:57;;;;;;;0.50;0.50;;;;;;;;;;5074783;28;20187;-62
2022/02/04 11:52:07;;;;;;;0.50;0.50;;;;;;;;;;5074041;28;20175;-62
2022/02/04 11:54:39;;;;;;;0.50;0.50;;;;;;;;;;5074163;28;20167;-62
2022/02/04 11:57:05;;;;;;;0.50;0.50;;;;;;;;;;5056316;28;20175;-62
2022/02/04 11:59:34;;;;;;;0.45;0.45;;;;;;;;;;5072701;28;20608;-62
2022/02/04 12:02:01;;;;;;;0.50;0.50;;;;;;;;;;5073804;28;20171;-62
2022/02/04 12:04:27;;;;;;;0.50;0.50;;;;;;;;;;5073993;28;20171;-62
2022/02/04 12:06:56;;;;;;;0.57;0.57;;;;;;;;;;5073794;28;20622;-62
2022/02/04 12:09:35;;;;;;;0.50;0.50;;;;;;;;;;5073741;28;20191;-62
2022/02/04 12:12:01;;;;;;;0.50;0.50;;;;;;;;;;5073595;28;20209;-62
2022/02/04 12:14:30;;;;;;;0.50;0.50;;;;;;;;;;5073789;28;20206;-62
2022/02/04 12:17:04;;;;;;;0.50;0.50;;;;;;;;;;5073737;28;20662;-62
2022/02/04 12:19:37;;;;;;;0.40;0.40;;;;;;;;;;5073332;28;20226;-61
2022/02/04 12:22:03;;;;;;;0.50;0.50;;;;;;;;;;5073401;28;20194;-62
2022/02/04 12:24:37;;;;;;;0.43;0.43;;;;;;;;;;5073370;28;20579;-62
2022/02/04 12:27:21;;;;;;;0.50;0.50;;;;;;;;;;5073460;28;20764;-62
2022/02/04 12:29:47;;;;;;;0.40;0.40;;;;;;;;;;5073109;28;20215;-62
2022/02/04 12:32:18;;;;;;;0.43;0.43;;;;;;;;;;5073105;28;20175;-62
2022/02/04 12:34:47;;;;;;;0.45;0.45;;;;;;;;;;5073341;28;20203;-62
2022/02/04 12:37:16;;;;;;;0.50;0.50;;;;;;;;;;5073315;28;20257;-62
2022/02/04 12:39:42;;;;;;;0.50;0.50;;;;;;;;;;5072962;28;20195;-62
2022/02/04 12:42:13;;;;;;;0.50;0.50;;;;;;;;;;5072665;28;20179;-62
2022/02/04 12:44:41;;;;;;;0.50;0.50;;;;;;;;;;5072889;28;20464;-62
2022/02/04 12:47:08;;;;;;;0.40;0.40;;;;;;;;;;5072941;28;20170;-60
2022/02/04 12:49:35;;;;;;;0.50;0.50;;;;;;;;;;5072778;28;20269;-62
2022/02/04 12:52:20;;;;;;;0.50;0.50;;;;;;;;;;5072745;28;20167;-62
2022/02/04 12:55:22;;;;;;;0.50;0.50;;;;;;;;;;5072803;28;20174;-62
2022/02/04 12:57:43;;;;;;;0.50;0.50;;;;;;;;;;5068338;28;20225;-62
2022/02/04 13:00:33;;;;;;;0.50;0.50;;;;;;;;;;5072311;28;20256;-62
2022/02/04 13:03:10;;;;;;;0.50;0.50;;;;;;;;;;5072713;28;20680;-62
2022/02/04 13:10:56;;;;;;;0.40;0.40;;;;;;;;;;5072245;28;20195;-62
2022/02/04 13:13:22;;;;;;;0.50;0.50;;;;;;;;;;5072574;28;20185;-62
2022/02/04 13:15:49;;;;;;;0.50;0.50;;;;;;;;;;5072451;28;20552;-62
2022/02/04 13:18:16;;;;;;;0.50;0.50;;;;;;;;;;5072357;28;20406;-62
2022/02/04 13:20:43;;;;;;;0.50;0.50;;;;;;;;;;5054004;28;20207;-62
2022/02/04 13:23:11;;;;;;;0.50;0.50;;;;;;;;;;5072290;28;20163;-62
2022/02/04 13:25:44;;;;;;;0.50;0.50;;;;;;;;;;5072336;28;20171;-62
2022/02/04 13:28:15;;;;;;;0.60;0.60;;;;;;;;;;5074734;28;20232;-61
2022/02/04 13:30:49;;;;;;;0.40;0.40;;;;;;;;;;5054097;28;20232;-62
2022/02/04 13:33:17;;;;;;;0.50;0.50;;;;;;;;;;5072154;28;20175;-61
2022/02/04 13:35:43;;;;;;;0.40;0.40;;;;;;;;;;5072164;28;20248;-62
2022/02/04 13:38:21;;;;;;;0.40;0.40;;;;;;;;;;5072149;28;20207;-62
2022/02/04 13:41:04;;;;;;;0.50;0.50;;;;;;;;;;5071579;28;20302;-62
2022/02/04 13:43:40;;;;;;;0.50;0.50;;;;;;;;;;5072110;28;20209;-62
2022/02/04 13:46:19;;;;;;;0.50;0.50;;;;;;;;;;5072004;28;20175;-62
2022/02/04 13:51:40;;;;;;;0.50;0.50;;;;;;;;;;5071747;28;20265;-62
2022/02/04 13:54:09;;;;;;;0.50;0.50;;;;;;;;;;5071825;28;20544;-60
2022/02/04 13:56:48;;;;;;;0.50;0.50;;;;;;;;;;5071651;28;20698;-62
2022/02/04 13:59:31;;;;;;;0.50;0.50;;;;;;;;;;5071641;28;20281;-62
2022/02/04 14:02:16;;;;;;;0.50;0.50;;;;;;;;;;5071587;28;20178;-62
2022/02/04 14:04:57;;;;;;;0.40;0.40;;;;;;;;;;5071746;28;20679;-62
2022/02/04 14:07:34;;;;;;;0.60;0.60;;;;;;;;;;5071570;28;20167;-61
2022/02/04 14:10:08;;;;;;;0.50;0.50;;;;;;;;;;5071574;28;20224;-62
2022/02/04 14:12:34;;;;;;;0.50;0.50;;;;;;;;;;5071658;28;20624;-62
2022/02/04 14:15:00;;;;;;;0.40;0.40;;;;;;;;;;5071506;28;20194;-62
2022/02/04 14:17:28;;;;;;;0.50;0.50;;;;;;;;;;5071396;28;20175;-62
2022/02/04 14:19:54;;;;;;;0.40;0.40;;;;;;;;;;5070952;28;20202;-62
2022/02/04 14:22:20;;;;;;;0.50;0.50;;;;;;;;;;5071109;28;20171;-62
2022/02/04 14:24:47;;;;;;;0.50;0.50;;;;;;;;;;5071461;28;20194;-62
2022/02/04 14:27:13;;;;;;;0.50;0.50;;;;;;;;;;5071371;28;20398;-62
2022/02/04 14:29:51;;;;;;;0.40;0.40;;;;;;;;;;5071275;28;20218;-62
2022/02/04 14:32:25;;;;;;;0.40;0.40;;;;;;;;;;5071134;28;20461;-62
2022/02/04 15:00:01;;;;;;;0.45;0.45;;;;;;;;;;5071799;28;20233;-61
2022/02/04 15:02:06;;;;;;;0.50;0.50;;;;;;;;;;5070880;28;20225;-62
2022/02/04 15:04:48;;;;;;;0.50;0.50;;;;;;;;;;5071593;28;20171;-60
2022/02/04 15:07:15;;;;;;;0.50;0.50;;;;;;;;;;5071323;28;20193;-62
2022/02/04 15:09:50;;;;;;;0.50;0.50;;;;;;;;;;5071108;28;20223;-61
2022/02/04 15:12:16;;;;;;;0.40;0.40;;;;;;;;;;5070945;28;20244;-62
2022/02/04 15:14:42;;;;;;;0.50;0.50;;;;;;;;;;5071150;28;20182;-61
2022/02/04 15:17:08;;;;;;;0.40;0.40;;;;;;;;;;5071101;28;20175;-61
2022/02/04 15:19:36;;;;;;;0.50;0.50;;;;;;;;;;5070971;28;20584;-61
2022/02/04 15:22:03;;;;;;;0.50;0.50;;;;;;;;;;5070007;28;20394;-61
2022/02/04 15:24:29;;;;;;;0.50;0.50;;;;;;;;;;5071104;28;20175;-62
2022/02/04 15:26:55;;;;;;;0.50;0.50;;;;;;;;;;5071213;28;20752;-61
2022/02/04 15:29:21;;;;;;;0.60;0.60;;;;;;;;;;5072067;28;20499;-62
2022/02/04 15:31:56;;;;;;;0.50;0.50;;;;;;;;;;5071828;28;20182;-61
2022/02/04 15:34:24;;;;;;;0.50;0.50;;;;;;;;;;5074595;28;20181;-61
2022/02/04 15:36:50;;;;;;;0.40;0.40;;;;;;;;;;5074288;28;20649;-61
2022/02/04 15:39:19;;;;;;;0.50;0.50;;;;;;;;;;5074251;28;20202;-62
2022/02/04 15:41:46;;;;;;;0.50;0.50;;;;;;;;;;5073821;28;20239;-61
2022/02/04 15:44:37;;;;;;;0.50;0.50;;;;;;;;;;5093879;28;20173;-61
2022/02/04 16:04:53;;;;;;;0.50;0.50;;;;;;;;;;5073340;28;20172;-61
2022/02/04 16:07:21;;;;;;;0.50;0.50;;;;;;;;;;5074097;28;20168;-61
2022/02/04 16:09:51;;;;;;;0.40;0.40;;;;;;;;;;5073873;28;20235;-61
2022/02/04 16:12:38;;;;;;;0.60;0.60;;;;;;;;;;5073577;28;20174;-61
2022/02/04 16:15:19;;;;;;;0.47;0.47;;;;;;;;;;5073531;28;20175;-61
2022/02/04 16:17:53;;;;;;;0.50;0.50;;;;;;;;;;5073613;28;20563;-61
2022/02/04 16:20:49;;;;;;;0.50;0.50;;;;;;;;;;5073488;28;20283;-61
2022/02/04 16:23:24;;;;;;;0.50;0.50;;;;;;;;;;5073386;28;20261;-62
2022/02/04 16:28:40;;;;;;;0.50;0.50;;;;;;;;;;5073071;28;20605;-63
2022/02/04 16:31:06;;;;;;;0.40;0.40;;;;;;;;;;5073097;28;20222;-63
2022/02/04 16:33:32;;;;;;;0.50;0.50;;;;;;;;;;5073180;28;20350;-61
2022/02/04 16:36:09;;;;;;;0.40;0.40;;;;;;;;;;5073427;28;20175;-63
2022/02/04 16:38:35;;;;;;;0.50;0.50;;;;;;;;;;5078198;28;20641;-63
2022/02/04 16:41:07;;;;;;;0.50;0.50;;;;;;;;;;5072736;28;20216;-61
2022/02/04 16:43:35;;;;;;;0.50;0.50;;;;;;;;;;5072690;28;20405;-60
2022/02/04 16:46:02;;;;;;;0.50;0.50;;;;;;;;;;5072881;28;20731;-63
2022/02/04 16:48:28;;;;;;;0.50;0.50;;;;;;;;;;5072556;28;20186;-62
2022/02/04 16:50:54;;;;;;;0.60;0.60;;;;;;;;;;5072269;28;20226;-63
2022/02/04 16:53:20;;;;;;;0.50;0.50;;;;;;;;;;5072686;28;20185;-63
2022/02/04 16:55:46;;;;;;;0.50;0.50;;;;;;;;;;5054903;28;20444;-63
2022/02/04 16:58:12;;;;;;;0.50;0.50;;;;;;;;;;5072735;28;20413;-63
2022/02/04 17:00:38;;;;;;;0.40;0.40;;;;;;;;;;5071800;28;20468;-63
2022/02/04 17:03:10;;;;;;;0.50;0.50;;;;;;;;;;5072684;28;20178;-63
2022/02/04 17:05:41;;;;;;;0.50;0.50;;;;;;;;;;5072428;28;20258;-63
2022/02/04 17:08:08;;;;;;;0.50;0.50;;;;;;;;;;5072713;28;20175;-61
2022/02/04 17:10:39;;;;;;;0.50;0.50;;;;;;;;;;5071994;28;20653;-62
2022/02/04 17:13:05;;;;;;;0.50;0.50;;;;;;;;;;5072253;28;20251;-61
2022/02/04 17:15:32;;;;;;;0.50;0.50;;;;;;;;;;5072481;28;20181;-63
2022/02/04 17:17:58;;;;;;;0.40;0.40;;;;;;;;;;5072213;28;20906;-63
2022/02/04 17:20:24;;;;;;;0.50;0.50;;;;;;;;;;5071647;28;20207;-61
2022/02/04 17:22:51;;;;;;;0.40;0.40;;;;;;;;;;5071938;28;20170;-61
2022/02/04 17:25:17;;;;;;;0.50;0.50;;;;;;;;;;5072420;28;20175;-61
2022/02/04 17:27:44;;;;;;;0.50;0.50;;;;;;;;;;5072019;28;20588;-61
2022/02/04 17:30:11;;;;;;;0.50;0.50;;;;;;;;;;5071742;28;20268;-61
2022/02/04 17:32:39;;;;;;;0.50;0.50;;;;;;;;;;5072041;28;20185;-63
2022/02/04 17:35:06;;;;;;;0.40;0.40;;;;;;;;;;5086466;28;20270;-63
2022/02/04 17:37:32;;;;;;;0.50;0.50;;;;;;;;;;5091024;28;20257;-63
2022/02/04 17:39:58;;;;;;;0.50;0.50;;;;;;;;;;5078022;28;20322;-63
2022/02/04 17:42:26;;;;;;;0.50;0.50;;;;;;;;;;5071493;28;20183;-63
2022/02/04 17:44:53;;;;;;;0.50;0.50;;;;;;;;;;5073415;28;20231;-63
2022/02/04 17:47:21;;;;;;;0.40;0.40;;;;;;;;;;5090789;28;20347;-63
2022/02/04 17:49:57;;;;;;;0.40;0.40;;;;;;;;;;5092176;28;20205;-63
2022/02/04 17:52:40;;;;;;;0.50;0.50;;;;;;;;;;5091903;28;20181;-63
2022/02/04 17:55:14;;;;;;;0.50;0.50;;;;;;;;;;5091006;28;20590;-63
2022/02/04 18:01:00;;;;;;;0.50;0.50;;;;;;;;;;4989575;28;20220;-63
2022/02/04 18:05:03;;;;;;;0.47;0.47;;;;;;;;;;4990175;28;20177;-63
2022/02/04 18:09:00;;;;;;;0.50;0.50;;;;;;;;;;5087503;28;20264;-63
2022/02/04 18:11:26;;;;;;;0.50;0.50;;;;;;;;;;5079357;28;20188;-63
2022/02/04 18:13:53;;;;;;;0.40;0.40;;;;;;;;;;5091867;28;20201;-63
2022/02/04 18:16:19;;;;;;;0.50;0.50;;;;;;;;;;5090533;28;20181;-63
2022/02/04 18:18:45;;;;;;;0.50;0.50;;;;;;;;;;5090215;28;20264;-63
2022/02/04 18:21:11;;;;;;;0.50;0.50;;;;;;;;;;5091344;28;20332;-63
2022/02/04 18:23:37;;;;;;;0.50;0.50;;;;;;;;;;5091975;28;20411;-62
2022/02/04 18:26:03;;;;;;;0.50;0.50;;;;;;;;;;5091822;28;20410;-62
2022/02/04 18:28:29;;;;;;;0.50;0.50;;;;;;;;;;5091532;28;20172;-61
2022/02/04 18:30:55;;;;;;;0.60;0.60;;;;;;;;;;5090822;28;20212;-62
2022/02/04 18:33:21;;;;;;;0.50;0.50;;;;;;;;;;5091680;28;20174;-62
2022/02/04 18:35:56;;;;;;;0.50;0.50;;;;;;;;;;5092022;28;20853;-62
2022/02/04 18:38:38;;;;;;;0.50;0.50;;;;;;;;;;5091995;28;20170;-62
2022/02/04 18:43:58;;;;;;;0.40;0.40;;;;;;;;;;5091805;28;20839;-62
2022/02/04 18:49:23;;;;;;;0.55;0.55;;;;;;;;;;5091630;28;20667;-63
2022/02/04 18:54:41;;;;;;;0.50;0.50;;;;;;;;;;5091526;28;20205;-62
2022/02/04 18:57:18;;;;;;;0.50;0.50;;;;;;;;;;5078114;28;20188;-62
2022/02/04 18:59:54;;;;;;;0.50;0.50;;;;;;;;;;5078318;28;20206;-63
2022/02/04 19:02:22;;;;;;;0.50;0.50;;;;;;;;;;5078539;28;20174;-62
2022/02/04 19:05:01;;;;;;;0.50;0.50;;;;;;;;;;5081167;28;20541;-62
2022/02/04 19:07:36;;;;;;;0.50;0.50;;;;;;;;;;5082244;28;20204;-62
2022/02/04 19:10:03;;;;;;;0.50;0.50;;;;;;;;;;5082549;28;20201;-63
2022/02/04 19:12:36;;;;;;;0.50;0.50;;;;;;;;;;5084430;28;20663;-62
2022/02/04 19:17:51;;;;;;;0.50;0.50;;;;;;;;;;5084211;28;20186;-62
2022/02/04 19:22:59;;;;;;;0.50;0.50;;;;;;;;;;5083475;28;20174;-63
2022/02/04 19:25:29;;;;;;;0.50;0.50;;;;;;;;;;5083112;28;20587;-62
2022/02/04 19:27:55;;;;;;;0.50;0.50;;;;;;;;;;5083537;28;20175;-61
2022/02/04 19:30:22;;;;;;;0.50;0.50;;;;;;;;;;5084906;28;20707;-62
2022/02/04 19:32:48;;;;;;;0.50;0.50;;;;;;;;;;5083656;28;20266;-62
2022/02/04 19:35:14;;;;;;;0.50;0.50;;;;;;;;;;5083564;28;20699;-62
2022/02/04 19:37:39;;;;;;;0.40;0.40;;;;;;;;;;5087882;28;20412;-62
2022/02/04 19:40:07;;;;;;;0.50;0.50;;;;;;;;;;5089355;28;20462;-61
2022/02/04 19:42:37;;;;;;;0.40;0.40;;;;;;;;;;5080815;28;20415;-59
2022/02/04 19:45:09;;;;;;;0.43;0.43;;;;;;;;;;5087816;28;20185;-62
2022/02/04 19:47:44;;;;;;;0.50;0.50;;;;;;;;;;5083548;28;20181;-62
2022/02/04 19:53:20;;;;;;;0.50;0.50;;;;;;;;;;5074430;28;20240;-62
2022/02/04 20:07:04;;;;;;;0.50;0.50;;;;;;;;;;5082475;28;20185;-62
2022/02/04 20:25:52;;;;;;;0.47;0.47;;;;;;;;;;5082789;28;20193;-62
2022/02/04 20:28:20;;;;;;;0.40;0.40;;;;;;;;;;5082881;28;20189;-62
2022/02/04 20:30:46;;;;;;;0.40;0.40;;;;;;;;;;5082360;28;20351;-62
2022/02/04 20:33:12;;;;;;;0.50;0.50;;;;;;;;;;5082184;28;20170;-62
2022/02/04 20:35:39;;;;;;;0.40;0.40;;;;;;;;;;5083675;28;20235;-62
2022/02/04 20:38:05;;;;;;;0.40;0.40;;;;;;;;;;5081938;28;20183;-62
2022/02/04 20:40:35;;;;;;;0.40;0.40;;;;;;;;;;5082048;28;20320;-62
2022/02/04 20:43:01;;;;;;;0.40;0.40;;;;;;;;;;5084001;28;20239;-61
2022/02/04 20:45:27;;;;;;;0.50;0.50;;;;;;;;;;5081555;28;20707;-61
2022/02/04 20:47:57;;;;;;;0.40;0.40;;;;;;;;;;5079678;28;20179;-61
2022/02/04 20:50:24;;;;;;;0.45;0.45;;;;;;;;;;5081126;28;20492;-61
2022/02/04 20:52:50;;;;;;;0.50;0.50;;;;;;;;;;5072765;28;20165;-61
2022/02/04 20:55:17;;;;;;;0.40;0.40;;;;;;;;;;5072963;28;20179;-61
2022/02/04 20:57:47;;;;;;;0.50;0.50;;;;;;;;;;5072430;28;20174;-61
2022/02/04 21:00:23;;;;;;;0.50;0.50;;;;;;;;;;5071907;28;20206;-61
2022/02/04 21:02:49;;;;;;;0.50;0.50;;;;;;;;;;5072536;28;20201;-61
2022/02/04 21:05:15;;;;;;;0.40;0.40;;;;;;;;;;5072871;28;20175;-62
2022/02/04 21:15:46;;;;;;;0.50;0.50;;;;;;;;;;5072545;28;20275;-61
2022/02/04 21:18:13;;;;;;;0.50;0.50;;;;;;;;;;5072551;28;20175;-61
2022/02/04 21:20:39;;;;;;;0.40;0.40;;;;;;;;;;5071386;28;20554;-61
2022/02/04 21:23:12;;;;;;;0.50;0.50;;;;;;;;;;5072147;28;20171;-61
2022/02/04 21:25:38;;;;;;;0.50;0.50;;;;;;;;;;5072201;28;20563;-62
2022/02/04 21:28:08;;;;;;;0.40;0.40;;;;;;;;;;5072210;28;20545;-61
2022/02/04 21:30:34;;;;;;;0.50;0.50;;;;;;;;;;5076222;28;20707;-62
2022/02/04 21:33:02;;;;;;;0.40;0.40;;;;;;;;;;5081249;28;20178;-61
2022/02/04 21:38:13;;;;;;;0.40;0.40;;;;;;;;;;5082745;28;20213;-61
2022/02/04 21:40:39;;;;;;;0.50;0.50;;;;;;;;;;5081176;28;20195;-61
2022/02/04 21:43:05;;;;;;;0.50;0.50;;;;;;;;;;5080305;28;20195;-61
2022/02/04 21:45:35;;;;;;;0.50;0.50;;;;;;;;;;5081999;28;20170;-61